sensor_id;sensor_type;location;lat;lon;timestamp;pressure;altitude;pressure_sealevel;temperature;humidity
23659;BME280;12006;42.666;23.326;2023-02-14T00:01:47;-14121.81;;;3.55;100.00
23659;BME280;12006;42.666;23.326;2023-02-14T00:04:14;-14121.34;;;3.52;100.00
23659;BME280;12006;42.666;23.326;2023-02-14T00:06:40;-14436.66;;;3.51;100.00
23659;BME280;12006;42.666;23.326;2023-02-14T00:09:16;-14436.94;;;3.52;100.00
23659;BME280;12006;42.666;23.326;2023-02-14T00:11:43;-14121.28;;;3.52;100.00
23659;BME280;12006;42.666;23.326;2023-02-14T00:14:09;-14121.34;;;3.52;100.00
23659;BME280;12006;42.666;23.326;2023-02-14T00:16:54;-14436.28;;;3.49;100.00
23659;BME280;12006;42.666;23.326;2023-02-14T00:19:20;-14435.91;;;3.47;100.00
23659;BME280;12006;42.666;23.326;2023-02-14T00:21:46;-14750.25;;;3.41;100.00
23659;BME280;12006;42.666;23.326;2023-02-14T00:24:14;-14751.41;;;3.47;100.00
23659;BME280;12006;42.666;23.326;2023-02-14T00:26:41;-14751.91;;;3.49;100.00
23659;BME280;12006;42.666;23.326;2023-02-14T00:29:09;-14752.09;;;3.50;100.00
23659;BME280;12006;42.666;23.326;2023-02-14T00:31:35;-15069.31;;;3.59;100.00
23659;BME280;12006;42.666;23.326;2023-02-14T00:34:02;-14753.47;;;3.57;100.00
23659;BME280;12006;42.666;23.326;2023-02-14T00:36:28;-15069.31;;;3.59;100.00
23659;BME280;12006;42.666;23.326;2023-02-14T00:38:53;-15385.38;;;3.61;100.00
23659;BME280;12006;42.666;23.326;2023-02-14T00:41:18;-15385.38;;;3.61;100.00
23659;BME280;12006;42.666;23.326;2023-02-14T00:43:49;-15385.69;;;3.62;100.00
23659;BME280;12006;42.666;23.326;2023-02-14T00:46:15;-15385.47;;;3.61;100.00
23659;BME280;12006;42.666;23.326;2023-02-14T00:48:40;-15385.16;;;3.60;100.00
23659;BME280;12006;42.666;23.326;2023-02-14T00:51:07;-15701.72;;;3.65;100.00
23659;BME280;12006;42.666;23.326;2023-02-14T00:53:32;-15385.47;;;3.61;100.00
23659;BME280;12006;42.666;23.326;2023-02-14T00:55:58;-15385.25;;;3.60;100.00
23659;BME280;12006;42.666;23.326;2023-02-14T00:58:23;-15700.56;;;3.59;100.00
23659;BME280;12006;42.666;23.326;2023-02-14T01:00:49;-15700.03;;;3.57;100.00
23659;BME280;12006;42.666;23.326;2023-02-14T01:03:14;-15700.47;;;3.59;100.00
23659;BME280;12006;42.666;23.326;2023-02-14T01:05:40;-15698.88;;;3.52;100.00
23659;BME280;12006;42.666;23.326;2023-02-14T01:08:05;-15699.09;;;3.53;100.00
23659;BME280;12006;42.666;23.326;2023-02-14T01:10:31;-15698.56;;;3.50;100.00
23659;BME280;12006;42.666;23.326;2023-02-14T01:12:56;-15698.25;;;3.49;100.00
23659;BME280;12006;42.666;23.326;2023-02-14T01:15:22;-15698.16;;;3.48;100.00
23659;BME280;12006;42.666;23.326;2023-02-14T01:17:47;-16013.47;;;3.48;100.00
23659;BME280;12006;42.666;23.326;2023-02-14T01:20:12;-15696.16;;;3.39;100.00
23659;BME280;12006;42.666;23.326;2023-02-14T01:22:39;-15698.06;;;3.48;100.00
23659;BME280;12006;42.666;23.326;2023-02-14T01:25:05;-15697.75;;;3.46;100.00
23659;BME280;12006;42.666;23.326;2023-02-14T01:27:31;-16012.28;;;3.42;100.00
23659;BME280;12006;42.666;23.326;2023-02-14T01:29:56;-16012.06;;;3.41;100.00
23659;BME280;12006;42.666;23.326;2023-02-14T01:32:22;-16012.41;;;3.43;100.00
23659;BME280;12006;42.666;23.326;2023-02-14T01:34:47;-15696.78;;;3.42;100.00
23659;BME280;12006;42.666;23.326;2023-02-14T01:37:13;-16010.25;;;3.33;100.00
23659;BME280;12006;42.666;23.326;2023-02-14T01:39:38;-16011.53;;;3.39;100.00
23659;BME280;12006;42.666;23.326;2023-02-14T01:42:04;-16011.09;;;3.37;100.00
23659;BME280;12006;42.666;23.326;2023-02-14T01:46:55;-16011.75;;;3.40;100.00
23659;BME280;12006;42.666;23.326;2023-02-14T01:49:27;-15695.09;;;3.34;100.00
23659;BME280;12006;42.666;23.326;2023-02-14T01:52:19;-15697.09;;;3.43;100.00
23659;BME280;12006;42.666;23.326;2023-02-14T01:54:52;-15381.38;;;3.42;100.00
23659;BME280;12006;42.666;23.326;2023-02-14T01:57:21;-15381.69;;;3.43;100.00
23659;BME280;12006;42.666;23.326;2023-02-14T01:59:55;-15381.97;;;3.45;100.00
23659;BME280;12006;42.666;23.326;2023-02-14T02:02:41;-15382.19;;;3.46;100.00
23659;BME280;12006;42.666;23.326;2023-02-14T02:05:07;-15382.59;;;3.48;100.00
23659;BME280;12006;42.666;23.326;2023-02-14T02:07:32;-15382.81;;;3.49;100.00
23659;BME280;12006;42.666;23.326;2023-02-14T02:10:00;-15382.09;;;3.45;100.00
23659;BME280;12006;42.666;23.326;2023-02-14T02:12:26;-15381.56;;;3.43;100.00
23659;BME280;12006;42.666;23.326;2023-02-14T02:14:54;-15376.34;;;3.17;100.00
23659;BME280;12006;42.666;23.326;2023-02-14T02:20:25;-15380.53;;;3.38;100.00
23659;BME280;12006;42.666;23.326;2023-02-14T02:35:42;-15380.53;;;3.38;100.00
23659;BME280;12006;42.666;23.326;2023-02-14T02:43:56;-15380.75;;;3.39;100.00
23659;BME280;12006;42.666;23.326;2023-02-14T02:52:51;-15064.22;;;3.33;100.00
23659;BME280;12006;42.666;23.326;2023-02-14T02:58:36;-15063.81;;;3.31;100.00
23659;BME280;12006;42.666;23.326;2023-02-14T03:01:08;-15063.72;;;3.31;100.00
23659;BME280;12006;42.666;23.326;2023-02-14T03:03:36;-15377.88;;;3.25;100.00
23659;BME280;12006;42.666;23.326;2023-02-14T03:06:20;-15378.91;;;3.30;100.00
23659;BME280;12006;42.666;23.326;2023-02-14T03:08:46;-15379.72;;;3.34;100.00
23659;BME280;12006;42.666;23.326;2023-02-14T03:11:12;-15380.13;;;3.36;100.00
23659;BME280;12006;42.666;23.326;2023-02-14T03:14:04;-15380.75;;;3.39;100.00
23659;BME280;12006;42.666;23.326;2023-02-14T03:16:35;-15380.44;;;3.37;100.00
23659;BME280;12006;42.666;23.326;2023-02-14T03:19:49;-15380.84;;;3.39;100.00
23659;BME280;12006;42.666;23.326;2023-02-14T03:22:48;-15380.44;;;3.37;100.00
23659;BME280;12006;42.666;23.326;2023-02-14T03:31:03;-15379.72;;;3.34;100.00
23659;BME280;12006;42.666;23.326;2023-02-14T03:33:45;-15378.19;;;3.26;100.00
23659;BME280;12006;42.666;23.326;2023-02-14T03:36:20;-15376.84;;;3.20;100.00
23659;BME280;12006;42.666;23.326;2023-02-14T03:39:12;-15377.47;;;3.23;100.00
23659;BME280;12006;42.666;23.326;2023-02-14T03:41:49;-15377.16;;;3.21;100.00
23659;BME280;12006;42.666;23.326;2023-02-14T03:44:19;-15376.44;;;3.18;100.00
23659;BME280;12006;42.666;23.326;2023-02-14T03:46:50;-15376.84;;;3.20;100.00
23659;BME280;12006;42.666;23.326;2023-02-14T03:49:21;-15376.75;;;3.19;100.00
23659;BME280;12006;42.666;23.326;2023-02-14T03:51:49;-15376.84;;;3.20;100.00
23659;BME280;12006;42.666;23.326;2023-02-14T03:54:18;-15375.81;;;3.15;100.00
23659;BME280;12006;42.666;23.326;2023-02-14T03:56:48;-15060.81;;;3.16;100.00
23659;BME280;12006;42.666;23.326;2023-02-14T03:59:16;-15060.31;;;3.14;100.00
23659;BME280;12006;42.666;23.326;2023-02-14T04:01:53;-15059.13;;;3.08;100.00
23659;BME280;12006;42.666;23.326;2023-02-14T04:04:23;-15059.81;;;3.11;100.00
23659;BME280;12006;42.666;23.326;2023-02-14T04:06:50;-15375.22;;;3.12;100.00
23659;BME280;12006;42.666;23.326;2023-02-14T04:09:15;-15059.31;;;3.09;100.00
23659;BME280;12006;42.666;23.326;2023-02-14T04:11:41;-15060.31;;;3.14;100.00
23659;BME280;12006;42.666;23.326;2023-02-14T04:14:06;-15061.22;;;3.18;100.00
23659;BME280;12006;42.666;23.326;2023-02-14T04:16:31;-15061.31;;;3.19;100.00
23659;BME280;12006;42.666;23.326;2023-02-14T04:19:17;-14746.34;;;3.21;100.00
23659;BME280;12006;42.666;23.326;2023-02-14T04:21:51;-14746.44;;;3.21;100.00
23659;BME280;12006;42.666;23.326;2023-02-14T04:24:17;-14431.72;;;3.25;100.00
23659;BME280;12006;42.666;23.326;2023-02-14T04:26:43;-14430.97;;;3.21;100.00
23659;BME280;12006;42.666;23.326;2023-02-14T04:29:21;-14431.34;;;3.23;100.00
23659;BME280;12006;42.666;23.326;2023-02-14T04:31:47;-14431.53;;;3.24;100.00
23659;BME280;12006;42.666;23.326;2023-02-14T04:34:13;-14115.72;;;3.22;100.00
23659;BME280;12006;42.666;23.326;2023-02-14T04:36:39;-14114.25;;;3.14;100.00
23659;BME280;12006;42.666;23.326;2023-02-14T04:39:04;-14114.81;;;3.17;100.00
23659;BME280;12006;42.666;23.326;2023-02-14T04:41:30;-14114.63;;;3.16;100.00
23659;BME280;12006;42.666;23.326;2023-02-14T04:43:55;-14113.78;;;3.11;100.00
23659;BME280;12006;42.666;23.326;2023-02-14T04:46:21;-14113.25;;;3.08;100.00
23659;BME280;12006;42.666;23.326;2023-02-14T04:48:46;-14112.78;;;3.06;100.00
23659;BME280;12006;42.666;23.326;2023-02-14T04:51:11;-14113.16;;;3.08;100.00
23659;BME280;12006;42.666;23.326;2023-02-14T04:53:37;-14112.59;;;3.05;100.00
23659;BME280;12006;42.666;23.326;2023-02-14T04:56:05;-14113.34;;;3.09;100.00
23659;BME280;12006;42.666;23.326;2023-02-14T04:58:31;-14111.84;;;3.01;100.00
23659;BME280;12006;42.666;23.326;2023-02-14T05:00:57;-14111.84;;;3.01;100.00
23659;BME280;12006;42.666;23.326;2023-02-14T05:03:22;-14111.94;;;3.01;100.00
23659;BME280;12006;42.666;23.326;2023-02-14T05:05:48;-14111.69;;;3.00;100.00
23659;BME280;12006;42.666;23.326;2023-02-14T05:08:13;-14112.31;;;3.03;100.00
23659;BME280;12006;42.666;23.326;2023-02-14T05:10:39;-14111.94;;;3.01;100.00
23659;BME280;12006;42.666;23.326;2023-02-14T05:13:04;-13797.16;;;3.04;100.00
23659;BME280;12006;42.666;23.326;2023-02-14T05:15:30;-14113.53;;;3.10;100.00
23659;BME280;12006;42.666;23.326;2023-02-14T05:17:55;-13798.31;;;3.11;100.00
23659;BME280;12006;42.666;23.326;2023-02-14T05:20:26;-13798.13;;;3.10;100.00
23659;BME280;12006;42.666;23.326;2023-02-14T05:22:52;-13798.31;;;3.11;100.00
23659;BME280;12006;42.666;23.326;2023-02-14T05:25:17;-13798.94;;;3.14;100.00
23659;BME280;12006;42.666;23.326;2023-02-14T05:27:42;-13483.41;;;3.14;100.00
23659;BME280;12006;42.666;23.326;2023-02-14T05:30:08;-13483.41;;;3.14;100.00
23659;BME280;12006;42.666;23.326;2023-02-14T05:32:34;-13798.94;;;3.14;100.00
23659;BME280;12006;42.666;23.326;2023-02-14T05:34:59;-13798.69;;;3.13;100.00
23659;BME280;12006;42.666;23.326;2023-02-14T05:37:25;-13797.69;;;3.07;100.00
23659;BME280;12006;42.666;23.326;2023-02-14T05:39:50;-13797.41;;;3.06;100.00
23659;BME280;12006;42.666;23.326;2023-02-14T05:42:15;-14113.88;;;3.12;100.00
23659;BME280;12006;42.666;23.326;2023-02-14T05:44:41;-13799.13;;;3.15;100.00
23659;BME280;12006;42.666;23.326;2023-02-14T05:47:06;-14113.25;;;3.08;100.00
23659;BME280;12006;42.666;23.326;2023-02-14T05:49:33;-13799.03;;;3.15;100.00
23659;BME280;12006;42.666;23.326;2023-02-14T05:51:58;-14113.06;;;3.07;100.00
23659;BME280;12006;42.666;23.326;2023-02-14T05:54:24;-14429.81;;;3.15;100.00
23659;BME280;12006;42.666;23.326;2023-02-14T05:56:49;-14115.47;;;3.20;100.00
23659;BME280;12006;42.666;23.326;2023-02-14T05:59:15;-14115.72;;;3.22;100.00
23659;BME280;12006;42.666;23.326;2023-02-14T06:01:40;-14431.72;;;3.25;100.00
23659;BME280;12006;42.666;23.326;2023-02-14T06:04:05;-14117.59;;;3.32;100.00
23659;BME280;12006;42.666;23.326;2023-02-14T06:06:31;-14117.75;;;3.33;100.00
23659;BME280;12006;42.666;23.326;2023-02-14T06:08:56;-14118.50;;;3.37;100.00
23659;BME280;12006;42.666;23.326;2023-02-14T06:11:21;-13803.06;;;3.37;100.00
23659;BME280;12006;42.666;23.326;2023-02-14T06:13:47;-13803.16;;;3.38;100.00
23659;BME280;12006;42.666;23.326;2023-02-14T06:16:12;-14119.78;;;3.44;100.00
23659;BME280;12006;42.666;23.326;2023-02-14T06:18:38;-14119.78;;;3.44;100.00
23659;BME280;12006;42.666;23.326;2023-02-14T06:21:03;-13805.75;;;3.52;100.00
23659;BME280;12006;42.666;23.326;2023-02-14T06:23:28;-13806.66;;;3.57;100.00
23659;BME280;12006;42.666;23.326;2023-02-14T06:25:54;-13804.31;;;3.44;100.00
23659;BME280;12006;42.666;23.326;2023-02-14T06:28:19;-13808.63;;;3.68;100.00
23659;BME280;12006;42.666;23.326;2023-02-14T06:30:45;-13493.59;;;3.72;100.00
23659;BME280;12006;42.666;23.326;2023-02-14T06:33:11;-13493.53;;;3.71;100.00
23659;BME280;12006;42.666;23.326;2023-02-14T06:35:36;-13809.44;;;3.72;100.00
23659;BME280;12006;42.666;23.326;2023-02-14T06:38:01;-13807.28;;;3.60;100.00
23659;BME280;12006;42.666;23.326;2023-02-14T06:40:27;-13808.44;;;3.67;100.00
23659;BME280;12006;42.666;23.326;2023-02-14T06:42:52;-14124.59;;;3.69;100.00
23659;BME280;12006;42.666;23.326;2023-02-14T06:45:17;-14124.97;;;3.71;100.00
23659;BME280;12006;42.666;23.326;2023-02-14T06:47:44;-14125.78;;;3.76;100.00
23659;BME280;12006;42.666;23.326;2023-02-14T06:50:09;-14125.31;;;3.73;100.00
23659;BME280;12006;42.666;23.326;2023-02-14T06:52:36;-14441.22;;;3.74;100.00
23659;BME280;12006;42.666;23.326;2023-02-14T06:55:01;-14441.97;;;3.78;100.00
23659;BME280;12006;42.666;23.326;2023-02-14T06:57:27;-14443.56;;;3.87;100.00
23659;BME280;12006;42.666;23.326;2023-02-14T06:59:52;-14442.91;;;3.83;100.00
23659;BME280;12006;42.666;23.326;2023-02-14T07:02:18;-14758.34;;;3.82;100.00
23659;BME280;12006;42.666;23.326;2023-02-14T07:04:43;-14760.78;;;3.94;100.00
23659;BME280;12006;42.666;23.326;2023-02-14T07:07:08;-14761.16;;;3.96;100.00
23659;BME280;12006;42.666;23.326;2023-02-14T07:09:34;-14760.97;;;3.95;100.00
23659;BME280;12006;42.666;23.326;2023-02-14T07:11:59;-15075.81;;;3.91;100.00
23659;BME280;12006;42.666;23.326;2023-02-14T07:14:25;-15391.22;;;3.89;100.00
23659;BME280;12006;42.666;23.326;2023-02-14T07:16:50;-15708.47;;;3.97;100.00
23659;BME280;12006;42.666;23.326;2023-02-14T07:19:16;-16023.28;;;3.93;100.00
23659;BME280;12006;42.666;23.326;2023-02-14T07:21:41;-16339.91;;;3.97;100.00
23659;BME280;12006;42.666;23.326;2023-02-14T07:24:06;-16654.75;;;3.94;100.00
23659;BME280;12006;42.666;23.326;2023-02-14T07:26:32;-17287.19;;;3.99;100.00
23659;BME280;12006;42.666;23.326;2023-02-14T07:28:57;-17289.09;;;4.07;100.00
23659;BME280;12006;42.666;23.326;2023-02-14T07:31:23;-17286.72;;;3.97;100.00
23659;BME280;12006;42.666;23.326;2023-02-14T07:33:49;-17916.06;;;3.90;100.00
23659;BME280;12006;42.666;23.326;2023-02-14T07:36:15;-18862.53;;;3.91;100.00
23659;BME280;12006;42.666;23.326;2023-02-14T07:38:41;-19492.59;;;3.88;100.00
23659;BME280;12006;42.666;23.326;2023-02-14T07:41:06;-19490.84;;;3.82;100.00
23659;BME280;12006;42.666;23.326;2023-02-14T07:43:31;-19806.97;;;3.85;100.00
23659;BME280;12006;42.666;23.326;2023-02-14T07:45:59;-20434.63;;;3.75;100.00
23659;BME280;12006;42.666;23.326;2023-02-14T07:48:25;-21064.34;;;3.73;100.00
23659;BME280;12006;42.666;23.326;2023-02-14T07:50:50;-21381.28;;;3.79;100.00
23659;BME280;12006;42.666;23.326;2023-02-14T07:53:16;-21381.59;;;3.80;100.00
23659;BME280;12006;42.666;23.326;2023-02-14T07:55:42;-21697.16;;;3.81;100.00
23659;BME280;12006;42.666;23.326;2023-02-14T07:58:07;-22007.72;;;3.67;100.00
23659;BME280;12006;42.666;23.326;2023-02-14T08:00:33;-22324.66;;;3.73;100.00
23659;BME280;12006;42.666;23.326;2023-02-14T08:02:58;-22641.44;;;3.78;100.00
23659;BME280;12006;42.666;23.326;2023-02-14T08:05:24;-22640.78;;;3.76;100.00
23659;BME280;12006;42.666;23.326;2023-02-14T08:07:49;-22638.38;;;3.69;100.00
23659;BME280;12006;42.666;23.326;2023-02-14T08:10:15;-22957.28;;;3.81;100.00
23659;BME280;12006;42.666;23.326;2023-02-14T08:12:41;-22955.47;;;3.75;100.00
23659;BME280;12006;42.666;23.326;2023-02-14T08:15:33;-23268.09;;;3.68;100.00
23659;BME280;12006;42.666;23.326;2023-02-14T08:18:18;-23268.75;;;3.70;100.00
23659;BME280;12006;42.666;23.326;2023-02-14T08:20:45;-23269.44;;;3.72;100.00
23659;BME280;12006;42.666;23.326;2023-02-14T08:23:13;-23270.78;;;3.76;100.00
23659;BME280;12006;42.666;23.326;2023-02-14T08:25:38;-23271.78;;;3.79;100.00
23659;BME280;12006;42.666;23.326;2023-02-14T08:28:04;-22956.28;;;3.78;100.00
23659;BME280;12006;42.666;23.326;2023-02-14T08:30:30;-22955.97;;;3.77;100.00
23659;BME280;12006;42.666;23.326;2023-02-14T08:32:56;-22953.50;;;3.69;100.00
23659;BME280;12006;42.666;23.326;2023-02-14T08:35:22;-22953.31;;;3.69;100.00
23659;BME280;12006;42.666;23.326;2023-02-14T08:37:47;-23267.09;;;3.65;100.00
23659;BME280;12006;42.666;23.326;2023-02-14T08:40:12;-23268.25;;;3.69;100.00
23659;BME280;12006;42.666;23.326;2023-02-14T08:42:38;-23273.09;;;3.83;100.00
23659;BME280;12006;42.666;23.326;2023-02-14T08:45:04;-23271.44;;;3.78;100.00
23659;BME280;12006;42.666;23.326;2023-02-14T08:47:32;-23585.88;;;3.77;100.00
23659;BME280;12006;42.666;23.326;2023-02-14T08:50:01;-23586.75;;;3.79;100.00
23659;BME280;12006;42.666;23.326;2023-02-14T08:52:27;-23583.00;;;3.68;100.00
23659;BME280;12006;42.666;23.326;2023-02-14T08:54:52;-23893.06;;;3.55;100.00
23659;BME280;12006;42.666;23.326;2023-02-14T08:57:18;-23893.75;;;3.57;100.00
23659;BME280;12006;42.666;23.326;2023-02-14T08:59:43;-23896.28;;;3.59;100.00
23659;BME280;12006;42.666;23.326;2023-02-14T09:02:12;-23898.88;;;3.66;100.00
23659;BME280;12006;42.666;23.326;2023-02-14T09:04:38;-23898.19;;;3.64;100.00
23659;BME280;12006;42.666;23.326;2023-02-14T09:07:03;-23894.75;;;3.54;100.00
23659;BME280;12006;42.666;23.326;2023-02-14T09:09:30;-23895.94;;;3.58;100.00
23659;BME280;12006;42.666;23.326;2023-02-14T09:11:55;-23895.94;;;3.58;100.00
23659;BME280;12006;42.666;23.326;2023-02-14T09:14:21;-23897.50;;;3.62;100.00
23659;BME280;12006;42.666;23.326;2023-02-14T09:16:48;-23898.69;;;3.65;100.00
23659;BME280;12006;42.666;23.326;2023-02-14T09:19:14;-23896.63;;;3.59;100.00
23659;BME280;12006;42.666;23.326;2023-02-14T09:21:39;-23895.59;;;3.57;100.00
23659;BME280;12006;42.666;23.326;2023-02-14T09:24:05;-23894.22;;;3.53;100.00
23659;BME280;12006;42.666;23.326;2023-02-14T09:26:30;-23895.94;;;3.58;100.00
23659;BME280;12006;42.666;23.326;2023-02-14T09:28:56;-23895.44;;;3.56;100.00
23659;BME280;12006;42.666;23.326;2023-02-14T09:31:23;-23899.22;;;3.67;100.00
23659;BME280;12006;42.666;23.326;2023-02-14T09:33:49;-23896.97;;;3.60;100.00
23659;BME280;12006;42.666;23.326;2023-02-14T09:36:33;-23899.03;;;3.66;100.00
23659;BME280;12006;42.666;23.326;2023-02-14T09:38:59;-23895.78;;;3.57;100.00
23659;BME280;12006;42.666;23.326;2023-02-14T09:44:06;-23896.81;;;3.60;100.00
23659;BME280;12006;42.666;23.326;2023-02-14T09:46:45;-23901.28;;;3.73;100.00
23659;BME280;12006;42.666;23.326;2023-02-14T09:49:14;-23904.72;;;3.83;100.00
23659;BME280;12006;42.666;23.326;2023-02-14T09:51:46;-23902.03;;;3.80;100.00
23659;BME280;12006;42.666;23.326;2023-02-14T09:54:19;-23898.22;;;3.69;100.00
23659;BME280;12006;42.666;23.326;2023-02-14T09:56:59;-23896.50;;;3.64;100.00
23659;BME280;12006;42.666;23.326;2023-02-14T09:59:36;-23894.44;;;3.59;100.00
23659;BME280;12006;42.666;23.326;2023-02-14T10:07:56;-23893.59;;;3.56;100.00
23659;BME280;12006;42.666;23.326;2023-02-14T10:10:30;-23895.47;;;3.61;100.00
23659;BME280;12006;42.666;23.326;2023-02-14T10:15:40;-23581.31;;;3.63;100.00
23659;BME280;12006;42.666;23.326;2023-02-14T10:18:35;-23586.41;;;3.78;100.00
23659;BME280;12006;42.666;23.326;2023-02-14T10:21:05;-23590.81;;;3.91;100.00
23659;BME280;12006;42.666;23.326;2023-02-14T10:23:38;-23592.34;;;3.96;100.00
23659;BME280;12006;42.666;23.326;2023-02-14T10:28:39;-23274.78;;;3.88;100.00
23659;BME280;12006;42.666;23.326;2023-02-14T10:33:33;-23273.44;;;3.84;100.00
23659;BME280;12006;42.666;23.326;2023-02-14T10:36:03;-22958.75;;;3.85;100.00
23659;BME280;12006;42.666;23.326;2023-02-14T10:39:00;-23273.44;;;3.84;100.00
23659;BME280;12006;42.666;23.326;2023-02-14T10:41:32;-22959.75;;;3.88;100.00
23659;BME280;12006;42.666;23.326;2023-02-14T10:46:41;-22962.69;;;3.97;100.00
23659;BME280;12006;42.666;23.326;2023-02-14T10:54:31;-22644.03;;;3.86;100.00
23659;BME280;12006;42.666;23.326;2023-02-14T11:02:29;-22954.66;;;3.73;100.00
23659;BME280;12006;42.666;23.326;2023-02-14T11:04:57;-23269.94;;;3.74;100.00
23659;BME280;12006;42.666;23.326;2023-02-14T11:07:24;-23273.09;;;3.83;100.00
23659;BME280;12006;42.666;23.326;2023-02-14T11:09:49;-22960.56;;;3.91;100.00
23659;BME280;12006;42.666;23.326;2023-02-14T11:12:39;-22643.38;;;3.84;100.00
23659;BME280;12006;42.666;23.326;2023-02-14T11:17:40;-22324.50;;;3.72;100.00
23659;BME280;12006;42.666;23.326;2023-02-14T11:20:27;-22324.81;;;3.73;100.00
23659;BME280;12006;42.666;23.326;2023-02-14T11:22:55;-22326.09;;;3.77;100.00
23659;BME280;12006;42.666;23.326;2023-02-14T11:25:29;-22011.34;;;3.78;100.00
23659;BME280;12006;42.666;23.326;2023-02-14T11:28:05;-22010.72;;;3.76;100.00
23659;BME280;12006;42.666;23.326;2023-02-14T11:30:39;-21693.47;;;3.69;100.00
23659;BME280;12006;42.666;23.326;2023-02-14T11:33:09;-21694.41;;;3.72;100.00
23659;BME280;12006;42.666;23.326;2023-02-14T11:35:37;-21695.63;;;3.76;100.00
23659;BME280;12006;42.666;23.326;2023-02-14T11:38:05;-21383.25;;;3.85;100.00
23659;BME280;12006;42.666;23.326;2023-02-14T11:40:34;-21386.28;;;3.95;100.00
23659;BME280;12006;42.666;23.326;2023-02-14T11:43:53;-20757.84;;;4.02;100.00
23659;BME280;12006;42.666;23.326;2023-02-14T11:53:53;-18867.38;;;4.09;100.00
23659;BME280;12006;42.666;23.326;2023-02-14T11:56:21;-18551.09;;;4.06;100.00
23659;BME280;12006;42.666;23.326;2023-02-14T11:58:57;-18551.22;;;4.07;100.00
23659;BME280;12006;42.666;23.326;2023-02-14T12:01:30;-18551.34;;;4.07;100.00
23659;BME280;12006;42.666;23.326;2023-02-14T12:04:00;-18870.00;;;4.19;100.00
23659;BME280;12006;42.666;23.326;2023-02-14T12:06:32;-18240.47;;;4.25;100.00
23659;BME280;12006;42.666;23.326;2023-02-14T12:11:56;-18237.47;;;4.14;100.00
23659;BME280;12006;42.666;23.326;2023-02-14T12:14:24;-18552.63;;;4.12;100.00
23659;BME280;12006;42.666;23.326;2023-02-14T12:17:13;-18554.81;;;4.20;100.00
23659;BME280;12006;42.666;23.326;2023-02-14T12:22:20;-18552.88;;;4.13;100.00
23659;BME280;12006;42.666;23.326;2023-02-14T12:25:00;-18870.50;;;4.21;100.00
23659;BME280;12006;42.666;23.326;2023-02-14T12:30:08;-18875.22;;;4.39;100.00
23659;BME280;12006;42.666;23.326;2023-02-14T12:32:50;-18875.22;;;4.39;100.00
23659;BME280;12006;42.666;23.326;2023-02-14T12:35:59;-18875.50;;;4.40;100.00
23659;BME280;12006;42.666;23.326;2023-02-14T12:38:54;-18876.00;;;4.42;100.00
23659;BME280;12006;42.666;23.326;2023-02-14T12:41:36;-18876.53;;;4.44;100.00
23659;BME280;12006;42.666;23.326;2023-02-14T12:57:35;-18875.75;;;4.41;100.00
23659;BME280;12006;42.666;23.326;2023-02-14T13:02:42;-18875.38;;;4.39;100.00
23659;BME280;12006;42.666;23.326;2023-02-14T13:07:58;-19192.47;;;4.45;100.00
23659;BME280;12006;42.666;23.326;2023-02-14T13:21:10;-19508.66;;;4.47;100.00
23659;BME280;12006;42.666;23.326;2023-02-14T13:23:45;-19821.53;;;4.37;100.00
23659;BME280;12006;42.666;23.326;2023-02-14T13:26:24;-20138.63;;;4.42;100.00
23659;BME280;12006;42.666;23.326;2023-02-14T13:28:55;-20139.63;;;4.46;100.00
23659;BME280;12006;42.666;23.326;2023-02-14T13:31:22;-20139.31;;;4.45;100.00
23659;BME280;12006;42.666;23.326;2023-02-14T13:36:42;-20142.28;;;4.55;100.00
23659;BME280;12006;42.666;23.326;2023-02-14T13:39:19;-20142.44;;;4.56;100.00
23659;BME280;12006;42.666;23.326;2023-02-14T13:41:48;-20143.28;;;4.59;100.00
23659;BME280;12006;42.666;23.326;2023-02-14T13:44:40;-20144.41;;;4.63;100.00
23659;BME280;12006;42.666;23.326;2023-02-14T13:47:07;-20141.03;;;4.51;100.00
23659;BME280;12006;42.666;23.326;2023-02-14T13:49:46;-20457.91;;;4.55;100.00
23659;BME280;12006;42.666;23.326;2023-02-14T13:52:13;-20775.84;;;4.63;100.00
23659;BME280;12006;42.666;23.326;2023-02-14T13:55:05;-20140.16;;;4.48;100.00
23659;BME280;12006;42.666;23.326;2023-02-14T13:57:33;-20140.88;;;4.50;100.00
23659;BME280;12006;42.666;23.326;2023-02-14T14:02:54;-20141.31;;;4.52;100.00
23659;BME280;12006;42.666;23.326;2023-02-14T14:16:25;-20139.63;;;4.46;100.00
23659;BME280;12006;42.666;23.326;2023-02-14T14:19:33;-20138.19;;;4.41;100.00
23659;BME280;12006;42.666;23.326;2023-02-14T14:22:04;-20454.19;;;4.42;100.00
23659;BME280;12006;42.666;23.326;2023-02-14T14:27:24;-20455.19;;;4.46;100.00
23659;BME280;12006;42.666;23.326;2023-02-14T14:29:58;-20455.91;;;4.48;100.00
23659;BME280;12006;42.666;23.326;2023-02-14T14:32:36;-20454.59;;;4.44;100.00
23659;BME280;12006;42.666;23.326;2023-02-14T14:35:19;-20452.88;;;4.38;100.00
23659;BME280;12006;42.666;23.326;2023-02-14T14:37:56;-20771.31;;;4.48;100.00
23659;BME280;12006;42.666;23.326;2023-02-14T14:42:49;-20453.47;;;4.40;100.00
23659;BME280;12006;42.666;23.326;2023-02-14T14:45:23;-20451.72;;;4.34;100.00
23659;BME280;12006;42.666;23.326;2023-02-14T14:47:51;-20764.72;;;4.25;100.00
23659;BME280;12006;42.666;23.326;2023-02-14T14:50:21;-20764.28;;;4.24;100.00
23659;BME280;12006;42.666;23.326;2023-02-14T14:52:48;-20766.78;;;4.32;100.00
23659;BME280;12006;42.666;23.326;2023-02-14T14:55:29;-20765.75;;;4.29;100.00
23659;BME280;12006;42.666;23.326;2023-02-14T14:58:01;-20768.38;;;4.38;100.00
23659;BME280;12006;42.666;23.326;2023-02-14T15:00:34;-20770.59;;;4.45;100.00
23659;BME280;12006;42.666;23.326;2023-02-14T15:03:21;-20771.91;;;4.50;100.00
23659;BME280;12006;42.666;23.326;2023-02-14T15:05:49;-20453.75;;;4.41;100.00
23659;BME280;12006;42.666;23.326;2023-02-14T15:13:14;-20766.63;;;4.32;100.00
23659;BME280;12006;42.666;23.326;2023-02-14T15:15:58;-20766.78;;;4.32;100.00
23659;BME280;12006;42.666;23.326;2023-02-14T15:18:24;-20449.44;;;4.26;100.00